Time;durP1;ratioP1;P1;durP2;ratioP2;P2;SDS_P1;SDS_P2;PMS_P1;PMS_P2;Temp;Humidity;BMP_temperature;BMP_pressure;BME280_temperature;BME280_humidity;BME280_pressure;Samples;Min_cycle;Max_cycle;Signal;HPM_P1;HPM_P2
2022/04/30 00:01:36;;;;;;;5.80;3.45;;;7.70;99.90;;;;;;6219574;23;20035;-76
2022/04/30 00:04:22;;;;;;;15.63;3.65;;;7.70;99.90;;;;;;6244237;23;20056;-75
2022/04/30 00:06:48;;;;;;;13.88;4.22;;;7.70;99.90;;;;;;6218085;23;20058;-77
2022/04/30 00:09:14;;;;;;;10.18;3.50;;;7.70;99.90;;;;;;6216707;23;20021;-75
2022/04/30 00:11:40;;;;;;;14.80;4.82;;;7.70;99.90;;;;;;6244068;23;20028;-76
2022/04/30 00:14:10;;;;;;;9.15;3.92;;;7.70;99.90;;;;;;6245242;22;20020;-76
2022/04/30 00:16:37;;;;;;;14.15;3.63;;;7.70;99.90;;;;;;6241543;23;20024;-74
2022/04/30 00:19:10;;;;;;;13.57;4.10;;;7.70;99.90;;;;;;6242216;23;20487;-75
2022/04/30 00:21:37;;;;;;;10.30;3.67;;;7.80;99.90;;;;;;6244205;22;20031;-76
2022/04/30 00:24:08;;;;;;;7.20;3.50;;;7.80;99.90;;;;;;6192556;23;20031;-75
2022/04/30 00:26:34;;;;;;;12.20;4.60;;;7.90;99.90;;;;;;6218369;23;20060;-76
2022/04/30 00:29:01;;;;;;;9.88;4.28;;;7.90;99.90;;;;;;6248658;23;20086;-73
2022/04/30 00:31:29;;;;;;;10.57;4.40;;;7.90;99.90;;;;;;6249501;22;20024;-78
2022/04/30 00:33:58;;;;;;;8.98;3.55;;;7.90;99.90;;;;;;6257515;22;20023;-76
2022/04/30 00:36:27;;;;;;;7.90;3.42;;;7.90;99.90;;;;;;6247504;22;20023;-77
2022/04/30 00:38:52;;;;;;;8.25;3.05;;;7.90;99.90;;;;;;6275126;22;20020;-76
2022/04/30 00:41:21;;;;;;;12.32;3.45;;;7.90;99.90;;;;;;6221867;22;20108;-76
2022/04/30 00:43:50;;;;;;;8.65;3.13;;;7.90;99.90;;;;;;6274576;22;20028;-76
2022/04/30 00:46:21;;;;;;;7.32;3.30;;;7.90;99.90;;;;;;6246364;22;20016;-75
2022/04/30 00:48:49;;;;;;;9.15;3.13;;;7.80;99.90;;;;;;6247169;22;20469;-77
2022/04/30 00:51:27;;;;;;;7.95;2.97;;;7.80;99.90;;;;;;6222969;22;20366;-76
2022/04/30 00:54:07;;;;;;;9.35;3.25;;;7.80;99.90;;;;;;6275279;22;20020;-76
2022/04/30 00:56:47;;;;;;;10.38;3.13;;;7.80;99.90;;;;;;6274389;22;20454;-79
2022/04/30 00:59:17;;;;;;;6.18;2.85;;;7.80;99.90;;;;;;6247832;22;20098;-75
2022/04/30 01:01:57;;;;;;;8.05;3.40;;;7.70;99.90;;;;;;6273080;22;20024;-78
2022/04/30 01:04:28;;;;;;;13.02;3.38;;;7.70;99.90;;;;;;6221910;22;20474;-76
2022/04/30 01:07:12;;;;;;;8.25;3.30;;;7.70;99.90;;;;;;6275137;22;20024;-76
2022/04/30 01:09:43;;;;;;;8.18;3.08;;;7.70;99.90;;;;;;6245868;22;20016;-75
2022/04/30 01:12:13;;;;;;;9.10;3.15;;;7.70;99.90;;;;;;6274151;22;20024;-75
2022/04/30 01:14:46;;;;;;;11.80;3.10;;;7.60;99.90;;;;;;6270355;22;20026;-76
2022/04/30 01:17:23;;;;;;;8.00;2.42;;;7.60;99.90;;;;;;6274624;22;20077;-75
2022/04/30 01:20:00;;;;;;;8.75;3.10;;;7.60;99.90;;;;;;6247326;22;20023;-77
2022/04/30 01:22:49;;;;;;;8.48;3.00;;;7.60;99.90;;;;;;6249608;22;20359;-76
2022/04/30 01:25:24;;;;;;;11.30;3.15;;;7.60;99.90;;;;;;6252430;22;20074;-75
2022/04/30 01:27:52;;;;;;;10.18;3.15;;;7.50;99.90;;;;;;6246948;22;20028;-75
2022/04/30 01:30:19;;;;;;;10.02;2.97;;;7.50;99.90;;;;;;6246734;22;20023;-75
2022/04/30 01:38:40;;;;;;;8.70;3.17;;;7.40;99.90;;;;;;6274740;22;20050;-75
2022/04/30 01:41:29;;;;;;;8.75;4.47;;;7.40;99.90;;;;;;6273361;22;20119;-76
2022/04/30 01:43:56;;;;;;;8.82;3.08;;;7.40;99.90;;;;;;6247132;22;20031;-75
2022/04/30 01:46:23;;;;;;;8.38;3.47;;;7.40;99.90;;;;;;6246660;22;20025;-75
2022/04/30 01:48:48;;;;;;;7.68;4.18;;;7.40;99.90;;;;;;6273995;22;20424;-76
2022/04/30 01:51:16;;;;;;;12.00;4.05;;;7.40;99.90;;;;;;6246508;22;20142;-76
2022/04/30 01:54:11;;;;;;;9.90;3.72;;;7.40;99.90;;;;;;6251334;22;20027;-75
2022/04/30 01:56:37;;;;;;;10.38;4.07;;;7.50;99.90;;;;;;6222815;22;20024;-75
2022/04/30 01:59:03;;;;;;;13.77;3.67;;;7.50;99.90;;;;;;6221281;22;20024;-75
2022/04/30 02:01:29;;;;;;;7.95;3.60;;;7.50;99.90;;;;;;6247135;22;20026;-76
2022/04/30 02:03:56;;;;;;;9.38;4.03;;;7.50;99.90;;;;;;6246287;22;20024;-77
2022/04/30 02:06:33;;;;;;;;;;;7.50;99.90;;;;;;6223538;22;20058;-75
2022/04/30 02:09:20;;;;;;;7.82;3.70;;;7.50;99.90;;;;;;6250849;22;19957;-76
2022/04/30 02:11:46;;;;;;;9.00;3.78;;;7.40;99.90;;;;;;6247041;22;20026;-75
2022/04/30 02:14:33;;;;;;;9.35;3.83;;;7.40;99.90;;;;;;6268844;22;20035;-76
2022/04/30 02:17:03;;;;;;;17.30;5.13;;;7.40;99.90;;;;;;6221650;22;20444;-76
2022/04/30 02:20:18;;;;;;;10.85;4.45;;;7.40;99.90;;;;;;6274345;22;20023;-76
2022/04/30 02:22:21;;;;;;;10.40;4.05;;;7.40;99.90;;;;;;6246516;22;20051;-76
2022/04/30 02:25:12;;;;;;;8.98;3.90;;;7.40;99.90;;;;;;6250967;22;20030;-76
2022/04/30 02:27:42;;;;;;;9.18;3.85;;;7.40;99.90;;;;;;6246626;22;20022;-75
2022/04/30 02:30:48;;;;;;;13.02;4.30;;;7.40;99.90;;;;;;6231649;22;20469;-78
2022/04/30 02:33:23;;;;;;;7.55;4.00;;;7.50;99.90;;;;;;6247869;22;20451;-77
2022/04/30 02:35:50;;;;;;;10.07;3.75;;;7.50;99.90;;;;;;6221896;22;20329;-77
2022/04/30 02:38:19;;;;;;;15.60;4.72;;;7.60;99.90;;;;;;6274703;22;20020;-78
2022/04/30 02:40:46;;;;;;;7.10;3.60;;;7.60;99.90;;;;;;6248403;22;20039;-79
2022/04/30 02:43:15;;;;;;;9.93;3.85;;;7.70;99.90;;;;;;6197267;22;20016;-76
2022/04/30 02:45:44;;;;;;;8.20;3.35;;;7.80;99.90;;;;;;6274141;22;20020;-78
2022/04/30 02:48:13;;;;;;;10.93;4.55;;;7.80;99.90;;;;;;6248207;22;20055;-77
2022/04/30 02:50:40;;;;;;;12.20;3.25;;;7.80;99.90;;;;;;6248429;22;20030;-77
2022/04/30 02:53:09;;;;;;;7.82;2.78;;;7.90;99.90;;;;;;6248932;22;20020;-77
2022/04/30 02:55:37;;;;;;;11.50;3.70;;;7.90;99.90;;;;;;6247925;22;20034;-75
2022/04/30 03:00:55;;;;;;;6.30;2.90;;;8.00;99.90;;;;;;6276145;22;20027;-77
2022/04/30 03:03:23;;;;;;;6.95;3.33;;;8.00;99.90;;;;;;6273939;22;20398;-76
2022/04/30 03:05:52;;;;;;;14.68;3.10;;;8.10;99.90;;;;;;6248155;22;20081;-76
2022/04/30 03:08:27;;;;;;;8.43;3.22;;;8.10;99.90;;;;;;6247787;22;20077;-77
2022/04/30 03:10:56;;;;;;;10.02;3.85;;;8.10;99.90;;;;;;6275711;22;20055;-75
2022/04/30 03:13:27;;;;;;;7.78;3.50;;;8.20;99.90;;;;;;6248239;22;20095;-75
2022/04/30 03:21:41;;;;;;;9.52;3.60;;;8.20;99.90;;;;;;6225306;22;20459;-75
2022/04/30 03:24:35;;;;;;;9.98;3.30;;;8.20;99.90;;;;;;6275734;22;20020;-77
2022/04/30 03:27:03;;;;;;;10.98;4.45;;;8.20;99.90;;;;;;6222839;22;20027;-77
2022/04/30 03:29:40;;;;;;;10.25;3.70;;;8.20;99.90;;;;;;6248751;22;20503;-77
2022/04/30 03:32:10;;;;;;;7.88;3.03;;;8.30;99.90;;;;;;6246113;22;20069;-76
2022/04/30 03:34:37;;;;;;;10.30;4.22;;;8.30;99.90;;;;;;6222677;22;20168;-75
2022/04/30 03:37:03;;;;;;;8.07;4.20;;;8.30;99.90;;;;;;6247760;22;20451;-76
2022/04/30 03:39:29;;;;;;;8.38;3.65;;;8.30;99.90;;;;;;6273891;22;20440;-75
2022/04/30 03:41:58;;;;;;;11.23;4.45;;;8.30;99.90;;;;;;6247605;22;20031;-75
2022/04/30 03:44:28;;;;;;;11.80;3.88;;;8.30;99.90;;;;;;6222067;22;20081;-75
2022/04/30 03:46:54;;;;;;;10.02;3.97;;;8.30;99.90;;;;;;6247237;22;20095;-76
2022/04/30 03:49:20;;;;;;;9.32;3.70;;;8.30;99.90;;;;;;6247850;22;20059;-76
2022/04/30 03:51:47;;;;;;;14.18;4.53;;;8.30;99.90;;;;;;6246999;22;20027;-76
2022/04/30 03:54:13;;;;;;;7.85;3.65;;;8.30;99.90;;;;;;6247596;22;20058;-76
2022/04/30 03:56:40;;;;;;;12.77;4.80;;;8.30;99.90;;;;;;6246752;22;20026;-76
2022/04/30 03:59:08;;;;;;;9.75;3.72;;;8.40;99.90;;;;;;6246968;22;20019;-75
2022/04/30 04:01:40;;;;;;;8.80;3.72;;;8.40;99.90;;;;;;6180640;23;20048;-75
2022/04/30 04:04:07;;;;;;;9.32;3.40;;;8.40;99.90;;;;;;6131257;23;20492;-75
2022/04/30 04:06:33;;;;;;;9.45;3.25;;;8.30;99.90;;;;;;6155745;23;20107;-74
2022/04/30 04:09:04;;;;;;;10.57;3.95;;;8.40;99.90;;;;;;6180924;23;20398;-75
2022/04/30 04:11:30;;;;;;;11.57;4.03;;;8.30;99.90;;;;;;6131278;23;20021;-75
2022/04/30 04:19:32;;;;;;;11.30;4.17;;;8.40;99.90;;;;;;6156155;23;20068;-76
2022/04/30 04:22:03;;;;;;;10.20;4.10;;;8.50;99.90;;;;;;6155451;23;20332;-76
2022/04/30 04:27:17;;;;;;;13.88;3.85;;;8.50;99.90;;;;;;6159719;23;20040;-76
2022/04/30 04:29:43;;;;;;;10.98;4.10;;;8.50;99.90;;;;;;6137759;23;20017;-75
2022/04/30 04:32:14;;;;;;;7.20;3.65;;;8.60;99.90;;;;;;6216563;22;20084;-76
2022/04/30 04:34:46;;;;;;;9.25;3.88;;;8.50;99.90;;;;;;6233513;22;20024;-76
2022/04/30 04:37:16;;;;;;;10.38;3.67;;;8.60;99.90;;;;;;6292239;22;20039;-76
2022/04/30 04:39:42;;;;;;;8.27;3.95;;;8.60;99.90;;;;;;6255114;22;20023;-75
2022/04/30 04:42:08;;;;;;;9.88;4.47;;;8.60;99.90;;;;;;6246785;22;20027;-75
2022/04/30 04:44:35;;;;;;;10.85;4.13;;;8.60;99.90;;;;;;6246624;22;20030;-76
2022/04/30 04:47:04;;;;;;;12.82;5.00;;;8.60;99.90;;;;;;6248084;22;20023;-75
2022/04/30 04:49:32;;;;;;;14.48;4.50;;;8.60;99.90;;;;;;6246926;22;20026;-76
2022/04/30 04:51:58;;;;;;;9.35;4.05;;;8.60;99.90;;;;;;6246641;22;20101;-76
2022/04/30 04:54:24;;;;;;;9.85;4.13;;;8.60;99.90;;;;;;6221445;22;20431;-76
2022/04/30 04:56:50;;;;;;;9.55;3.83;;;8.60;99.90;;;;;;6246708;22;20027;-75
2022/04/30 04:59:19;;;;;;;8.88;4.13;;;8.70;99.90;;;;;;6222416;22;20016;-76
2022/04/30 05:01:48;;;;;;;9.98;4.30;;;8.70;99.90;;;;;;6221946;22;20103;-75
2022/04/30 05:04:17;;;;;;;7.97;3.95;;;8.70;99.90;;;;;;6221528;22;20024;-78
2022/04/30 05:06:44;;;;;;;12.32;4.68;;;8.70;99.90;;;;;;6246955;22;20019;-77
2022/04/30 05:09:11;;;;;;;12.48;5.07;;;8.70;99.90;;;;;;6222301;22;20118;-80
2022/04/30 05:11:37;;;;;;;10.82;5.65;;;8.70;99.90;;;;;;6247454;22;20096;-79
2022/04/30 05:14:07;;;;;;;17.00;6.13;;;8.70;99.90;;;;;;6223278;22;20526;-79
2022/04/30 05:16:42;;;;;;;8.63;3.50;;;8.60;99.90;;;;;;6250536;22;20019;-79
2022/04/30 05:19:07;;;;;;;8.77;2.78;;;8.60;99.90;;;;;;6222353;22;20020;-78
2022/04/30 05:21:36;;;;;;;6.95;2.42;;;8.50;99.90;;;;;;6273077;22;20019;-78
2022/04/30 05:24:07;;;;;;;5.10;2.67;;;8.50;99.90;;;;;;6273285;22;20024;-77
2022/04/30 05:26:38;;;;;;;7.68;3.33;;;8.40;99.90;;;;;;6248279;22;20089;-77
2022/04/30 05:29:19;;;;;;;8.77;3.55;;;8.50;99.90;;;;;;6239646;22;20023;-77
2022/04/30 05:31:45;;;;;;;6.10;2.67;;;8.40;99.90;;;;;;6246694;22;20024;-78
2022/04/30 05:34:12;;;;;;;6.20;3.40;;;8.30;99.90;;;;;;6274228;22;20091;-78
2022/04/30 05:36:41;;;;;;;6.07;3.00;;;8.30;99.90;;;;;;6267992;22;20072;-77
2022/04/30 05:39:13;;;;;;;6.05;3.08;;;8.30;99.90;;;;;;6246572;22;20023;-77
2022/04/30 05:41:42;;;;;;;;;;;8.30;99.90;;;;;;6274501;22;20028;-77
2022/04/30 05:44:08;;;;;;;6.47;3.47;;;8.20;99.90;;;;;;6274188;22;19915;-77
2022/04/30 05:46:35;;;;;;;6.75;3.45;;;8.20;99.90;;;;;;6273753;22;20042;-76
2022/04/30 05:49:11;;;;;;;8.63;4.07;;;8.20;99.90;;;;;;6246706;22;20363;-77
2022/04/30 05:51:46;;;;;;;8.55;4.05;;;8.30;99.90;;;;;;6249159;22;20058;-78
2022/04/30 05:54:22;;;;;;;;;;;8.30;99.90;;;;;;6274568;22;20030;-77
2022/04/30 05:56:48;;;;;;;10.35;4.82;;;8.40;99.90;;;;;;6245406;22;19919;-76
2022/04/30 05:59:14;;;;;;;6.88;4.82;;;8.40;99.90;;;;;;6221012;22;20468;-77
2022/04/30 06:01:42;;;;;;;8.38;4.90;;;8.50;99.90;;;;;;6271804;22;20023;-77
2022/04/30 06:04:08;;;;;;;9.70;5.30;;;8.60;99.90;;;;;;6246621;22;20016;-76
2022/04/30 06:06:38;;;;;;;8.80;5.45;;;8.60;99.90;;;;;;6272444;22;20023;-77
2022/04/30 06:09:07;;;;;;;10.43;5.25;;;8.60;99.90;;;;;;6221423;22;20456;-77
2022/04/30 06:12:06;;;;;;;12.93;6.57;;;8.70;99.90;;;;;;6195395;22;20074;-76
2022/04/30 06:14:51;;;;;;;8.03;4.93;;;8.80;99.90;;;;;;6274822;22;20042;-78
2022/04/30 06:17:26;;;;;;;11.20;4.90;;;8.80;99.90;;;;;;6223466;22;20089;-77
2022/04/30 06:19:55;;;;;;;11.85;5.10;;;8.90;99.90;;;;;;6200403;22;20063;-76
2022/04/30 06:22:22;;;;;;;9.90;5.82;;;9.00;99.90;;;;;;6275858;22;20062;-76
2022/04/30 06:24:49;;;;;;;9.77;5.72;;;9.00;99.90;;;;;;6248930;22;20019;-75
2022/04/30 06:27:16;;;;;;;10.32;4.97;;;9.00;99.90;;;;;;6225059;22;20028;-78
2022/04/30 06:29:41;;;;;;;10.45;5.55;;;9.00;99.90;;;;;;6276145;22;20019;-77
2022/04/30 06:32:08;;;;;;;6.20;3.78;;;9.00;99.90;;;;;;6247955;22;20602;-77
2022/04/30 06:34:39;;;;;;;8.77;4.45;;;9.10;99.90;;;;;;6248255;22;20024;-77
2022/04/30 06:37:05;;;;;;;6.78;4.20;;;9.20;99.90;;;;;;6248607;22;20100;-76
2022/04/30 06:39:49;;;;;;;7.82;4.32;;;9.20;99.90;;;;;;6276676;22;20050;-78
2022/04/30 06:42:24;;;;;;;9.73;5.28;;;9.30;99.90;;;;;;6277394;22;20024;-76
2022/04/30 06:44:51;;;;;;;10.90;4.88;;;9.40;99.90;;;;;;6275983;22;20030;-77
2022/04/30 06:47:18;;;;;;;10.10;5.35;;;9.40;99.90;;;;;;6248541;22;20075;-76
2022/04/30 06:49:45;;;;;;;16.20;6.78;;;9.50;99.90;;;;;;6276278;22;20471;-79
2022/04/30 06:52:12;;;;;;;8.43;4.65;;;9.50;99.90;;;;;;6249051;22;20023;-77
2022/04/30 06:57:23;;;;;;;11.25;5.22;;;9.60;99.90;;;;;;6276680;22;20028;-78
2022/04/30 06:59:52;;;;;;;8.15;4.82;;;9.80;99.90;;;;;;6248655;22;20077;-78
2022/04/30 07:02:22;;;;;;;7.72;4.82;;;9.80;99.90;;;;;;6248032;22;20023;-78
2022/04/30 07:04:51;;;;;;;7.20;4.35;;;9.90;99.90;;;;;;6248420;22;20020;-78
2022/04/30 07:07:20;;;;;;;10.27;4.28;;;9.90;99.90;;;;;;6222599;22;20115;-77
2022/04/30 07:09:50;;;;;;;8.50;5.57;;;10.00;99.90;;;;;;6223978;22;20026;-76
2022/04/30 07:12:39;;;;;;;10.10;4.80;;;10.00;99.90;;;;;;6253937;22;20023;-77
2022/04/30 07:15:19;;;;;;;10.43;4.47;;;10.10;99.90;;;;;;6276071;22;20042;-77
2022/04/30 07:17:48;;;;;;;10.57;5.33;;;10.10;99.90;;;;;;6274561;22;20031;-77
2022/04/30 07:20:16;;;;;;;10.75;5.15;;;10.10;99.90;;;;;;6222361;22;20242;-77
2022/04/30 07:23:01;;;;;;;12.73;5.72;;;10.20;99.90;;;;;;6272677;22;20019;-76
2022/04/30 07:25:29;;;;;;;10.38;4.53;;;10.30;99.90;;;;;;6249681;22;20089;-77
2022/04/30 07:27:56;;;;;;;9.07;4.70;;;10.40;99.90;;;;;;6223249;22;20479;-77
2022/04/30 07:30:22;;;;;;;17.50;7.75;;;10.40;99.90;;;;;;6276292;22;20485;-78
2022/04/30 07:32:52;;;;;;;13.85;7.18;;;10.50;99.90;;;;;;6275229;22;20082;-78
2022/04/30 07:35:26;;;;;;;11.90;5.60;;;10.60;99.90;;;;;;6276397;22;20432;-79
2022/04/30 07:37:52;;;;;;;12.48;4.38;;;10.60;99.90;;;;;;6252782;22;20024;-78
2022/04/30 07:40:25;;;;;;;10.40;5.15;;;10.70;99.90;;;;;;6204317;22;20038;-77
2022/04/30 07:43:29;;;;;;;12.25;5.05;;;10.70;99.90;;;;;;6232819;22;20525;-77
2022/04/30 07:46:04;;;;;;;14.32;5.05;;;10.70;99.90;;;;;;6246834;22;20063;-76
2022/04/30 07:48:31;;;;;;;10.50;5.65;;;10.70;99.90;;;;;;6225176;22;20440;-78
2022/04/30 07:50:58;;;;;;;12.18;4.90;;;10.90;99.90;;;;;;6222257;22;20499;-78
2022/04/30 07:53:58;;;;;;;14.00;5.25;;;11.10;99.90;;;;;;6250869;22;20023;-76
2022/04/30 07:56:26;;;;;;;8.07;4.63;;;11.20;99.90;;;;;;6131148;23;20033;-77
2022/04/30 07:59:07;;;;;;;11.40;5.05;;;11.40;99.90;;;;;;6180865;23;20080;-77
2022/04/30 08:01:35;;;;;;;9.38;4.65;;;11.60;99.90;;;;;;6155844;23;20438;-78
2022/04/30 08:04:12;;;;;;;9.43;4.53;;;11.70;99.90;;;;;;6132493;23;20072;-78
2022/04/30 08:06:49;;;;;;;10.43;5.05;;;12.00;99.90;;;;;;6180857;23;20041;-76
2022/04/30 08:09:15;;;;;;;8.75;4.45;;;12.60;99.90;;;;;;6181100;23;20060;-76
2022/04/30 08:11:41;;;;;;;9.32;5.25;;;12.80;99.90;;;;;;6156212;23;20021;-76
2022/04/30 08:14:13;;;;;;;11.43;5.07;;;12.80;99.90;;;;;;6156118;23;20028;-77
2022/04/30 08:16:39;;;;;;;10.55;4.70;;;12.80;99.90;;;;;;6153773;23;20084;-78
2022/04/30 08:19:05;;;;;;;13.25;4.95;;;12.70;99.90;;;;;;6131067;23;20366;-77
2022/04/30 08:21:39;;;;;;;10.95;5.13;;;12.60;99.90;;;;;;6179080;23;20029;-78
2022/04/30 08:24:25;;;;;;;9.68;4.65;;;12.60;99.90;;;;;;6180570;23;20511;-77
2022/04/30 08:26:56;;;;;;;11.70;4.43;;;12.50;99.90;;;;;;6155929;23;20032;-76
2022/04/30 08:29:23;;;;;;;9.15;4.90;;;12.50;99.90;;;;;;6180672;23;20021;-77
2022/04/30 08:32:07;;;;;;;8.55;4.40;;;12.50;99.90;;;;;;6180765;23;20028;-76
2022/04/30 08:34:34;;;;;;;9.63;4.75;;;12.50;99.90;;;;;;6184826;23;20025;-77
2022/04/30 08:37:03;;;;;;;10.77;5.13;;;12.50;99.90;;;;;;6158505;23;20036;-77
2022/04/30 08:39:40;;;;;;;8.57;4.50;;;12.50;99.90;;;;;;6121088;23;20029;-76
2022/04/30 08:42:15;;;;;;;12.05;4.97;;;12.60;99.90;;;;;;6219496;23;20099;-77
2022/04/30 08:44:41;;;;;;;8.60;4.47;;;12.60;99.90;;;;;;6214405;23;20024;-76
2022/04/30 08:47:12;;;;;;;10.50;4.43;;;12.70;99.90;;;;;;6213732;23;20400;-77
2022/04/30 08:49:42;;;;;;;8.63;4.72;;;12.80;99.90;;;;;;6186869;23;20356;-77
2022/04/30 08:52:15;;;;;;;10.15;4.80;;;13.00;99.90;;;;;;6213785;23;20055;-76
2022/04/30 08:54:42;;;;;;;10.05;4.97;;;13.10;99.90;;;;;;6213435;23;20032;-78
2022/04/30 08:57:14;;;;;;;11.00;4.43;;;13.30;99.90;;;;;;6211771;23;20395;-76
2022/04/30 09:00:02;;;;;;;8.38;4.18;;;13.40;99.90;;;;;;6213688;23;20104;-76
2022/04/30 09:02:28;;;;;;;10.05;5.03;;;13.60;99.90;;;;;;6187585;23;20020;-76
2022/04/30 09:04:54;;;;;;;10.85;6.03;;;13.90;99.90;;;;;;6214815;23;20493;-77
2022/04/30 09:07:21;;;;;;;13.88;5.88;;;14.00;99.90;;;;;;6212781;23;20472;-75
2022/04/30 09:09:58;;;;;;;10.45;5.32;;;14.20;99.90;;;;;;6215543;23;20021;-76
2022/04/30 09:12:31;;;;;;;10.70;4.85;;;14.20;99.90;;;;;;6214398;23;20033;-75
2022/04/30 09:15:19;;;;;;;12.15;5.18;;;14.20;99.90;;;;;;6215159;23;20511;-75
2022/04/30 09:17:56;;;;;;;12.25;5.32;;;14.10;99.90;;;;;;6210688;23;20025;-77
2022/04/30 09:20:23;;;;;;;9.70;4.53;;;14.00;99.90;;;;;;6213654;23;20024;-76
2022/04/30 09:22:53;;;;;;;13.00;4.93;;;13.90;99.90;;;;;;6211664;23;20111;-76
2022/04/30 09:25:21;;;;;;;13.27;5.13;;;13.90;99.90;;;;;;6211596;23;20027;-76
2022/04/30 09:27:54;;;;;;;9.75;4.63;;;13.90;99.90;;;;;;6213611;23;20024;-75
2022/04/30 09:30:32;;;;;;;9.32;4.65;;;13.90;99.90;;;;;;6211683;23;20032;-76
2022/04/30 09:33:04;;;;;;;10.68;4.70;;;13.90;99.90;;;;;;6198461;23;20024;-76
2022/04/30 09:38:25;;;;;;;10.43;4.47;;;13.70;99.90;;;;;;6243697;23;20103;-76
2022/04/30 09:40:57;;;;;;;11.20;5.45;;;13.80;99.90;;;;;;6241847;23;20023;-76
2022/04/30 09:43:34;;;;;;;13.35;6.32;;;13.80;99.90;;;;;;6243414;22;20028;-76
2022/04/30 09:46:04;;;;;;;10.48;5.15;;;13.90;99.90;;;;;;6241106;23;20016;-77
2022/04/30 09:54:01;;;;;;;8.48;4.60;;;14.00;99.90;;;;;;6243305;23;20032;-77
2022/04/30 09:56:35;;;;;;;10.18;4.80;;;14.10;99.90;;;;;;6216233;23;20476;-77
2022/04/30 09:59:10;;;;;;;10.93;4.65;;;14.30;99.90;;;;;;6241514;23;20355;-76
2022/04/30 10:01:48;;;;;;;12.80;5.35;;;14.30;99.90;;;;;;6217771;23;20031;-76
2022/04/30 10:04:18;;;;;;;9.68;4.65;;;14.40;99.90;;;;;;6217339;23;20066;-76
2022/04/30 10:06:48;;;;;;;9.68;4.47;;;14.30;99.90;;;;;;6216588;23;20043;-76
2022/04/30 10:09:46;;;;;;;9.88;4.45;;;14.20;99.90;;;;;;6243646;23;20057;-76
2022/04/30 10:12:37;;;;;;;10.35;5.68;;;14.20;99.90;;;;;;6241661;23;20035;-76
2022/04/30 10:15:34;;;;;;;9.20;5.15;;;14.20;99.90;;;;;;6243190;23;20039;-76
2022/04/30 10:18:01;;;;;;;10.25;4.70;;;14.10;99.90;;;;;;6241445;23;20102;-76
2022/04/30 10:20:37;;;;;;;8.27;4.43;;;14.20;99.90;;;;;;6241308;23;20020;-76
2022/04/30 10:23:07;;;;;;;7.97;4.70;;;14.30;99.90;;;;;;6241609;23;20024;-75
2022/04/30 10:25:58;;;;;;;;;;;14.40;99.90;;;;;;6243879;22;20024;-76
2022/04/30 10:28:23;;;;;;;9.68;4.53;;;14.30;99.40;;;;;;6241159;23;19990;-76
2022/04/30 10:31:11;;;;;;;12.27;5.30;;;14.20;99.90;;;;;;6243006;23;20055;-77
2022/04/30 10:33:58;;;;;;;8.82;4.22;;;14.20;99.90;;;;;;6267368;22;20050;-76
2022/04/30 10:36:36;;;;;;;12.05;5.22;;;14.10;99.90;;;;;;6273341;22;20500;-77
2022/04/30 10:39:04;;;;;;;9.32;4.82;;;14.10;99.90;;;;;;6272833;22;20024;-76
2022/04/30 10:41:43;;;;;;;8.85;3.88;;;13.90;99.90;;;;;;6222017;22;20023;-76
2022/04/30 10:44:14;;;;;;;10.13;4.70;;;13.90;99.50;;;;;;6246456;22;20405;-79
2022/04/30 10:46:45;;;;;;;11.00;4.25;;;13.90;99.90;;;;;;6273828;22;20039;-76
2022/04/30 10:49:13;;;;;;;8.93;4.88;;;13.90;99.80;;;;;;6274040;22;20020;-76
2022/04/30 10:51:45;;;;;;;10.80;5.97;;;13.80;99.60;;;;;;6273584;22;20021;-75
2022/04/30 10:54:18;;;;;;;10.35;4.70;;;13.80;99.70;;;;;;6196279;22;20077;-76
2022/04/30 10:56:58;;;;;;;9.02;4.72;;;13.80;99.90;;;;;;6273677;22;20317;-76
2022/04/30 10:59:26;;;;;;;8.07;4.65;;;13.80;99.90;;;;;;6246556;22;20027;-76
2022/04/30 11:01:59;;;;;;;6.88;4.45;;;13.80;99.90;;;;;;6247547;22;20467;-75
2022/04/30 11:04:25;;;;;;;13.07;4.93;;;13.80;99.90;;;;;;6172568;22;20073;-76
2022/04/30 11:06:59;;;;;;;9.35;4.47;;;13.70;99.90;;;;;;6199380;22;20069;-74
2022/04/30 11:09:25;;;;;;;8.27;4.10;;;13.70;99.90;;;;;;6248159;22;20375;-75
2022/04/30 11:11:54;;;;;;;10.27;4.80;;;13.70;99.90;;;;;;6248344;22;20022;-77
2022/04/30 11:14:22;;;;;;;9.38;4.95;;;13.70;99.90;;;;;;6248476;22;20031;-75
2022/04/30 11:16:57;;;;;;;9.48;4.20;;;13.60;99.90;;;;;;6222869;22;20026;-76
2022/04/30 11:19:26;;;;;;;9.10;4.57;;;13.60;99.90;;;;;;6223933;22;20023;-77
2022/04/30 11:21:58;;;;;;;13.80;4.88;;;13.70;99.90;;;;;;6248400;22;20054;-76
2022/04/30 11:24:45;;;;;;;9.55;4.57;;;13.60;99.90;;;;;;6248106;22;20456;-76
2022/04/30 11:27:38;;;;;;;8.20;4.63;;;13.60;99.90;;;;;;6275866;22;20119;-75
2022/04/30 11:30:13;;;;;;;8.80;4.70;;;13.60;99.90;;;;;;6225630;22;20028;-76
2022/04/30 11:32:56;;;;;;;11.30;4.68;;;13.70;99.90;;;;;;6268575;22;20117;-76
2022/04/30 11:35:26;;;;;;;10.13;4.45;;;13.80;99.90;;;;;;6248290;22;20095;-75
2022/04/30 11:37:57;;;;;;;8.70;4.93;;;13.90;99.90;;;;;;6174222;22;20032;-75
2022/04/30 11:40:26;;;;;;;9.07;5.22;;;13.90;99.90;;;;;;6224271;22;20059;-77
2022/04/30 11:43:02;;;;;;;12.00;4.95;;;14.00;99.60;;;;;;6247939;22;20031;-76
2022/04/30 11:45:38;;;;;;;8.30;4.82;;;14.00;98.90;;;;;;6276556;22;20020;-75
2022/04/30 11:48:10;;;;;;;8.18;4.45;;;14.10;99.20;;;;;;6249387;22;20024;-75
2022/04/30 11:50:41;;;;;;;8.75;4.72;;;14.40;99.30;;;;;;6276556;22;20024;-76
2022/04/30 11:53:12;;;;;;;9.55;4.97;;;14.50;98.80;;;;;;6223246;22;20023;-76
2022/04/30 11:55:57;;;;;;;8.02;4.82;;;14.50;98.60;;;;;;6274873;22;20130;-75
2022/04/30 11:58:25;;;;;;;10.95;4.75;;;14.80;98.70;;;;;;6247782;22;20459;-75
2022/04/30 12:00:52;;;;;;;13.45;5.15;;;15.00;98.30;;;;;;6248630;22;20053;-75
2022/04/30 12:03:27;;;;;;;7.95;4.80;;;15.30;98.00;;;;;;6222418;22;20015;-76
2022/04/30 12:05:53;;;;;;;11.00;4.72;;;15.40;97.80;;;;;;6247264;22;20024;-78
2022/04/30 12:08:29;;;;;;;8.57;4.40;;;15.70;97.80;;;;;;6247628;22;20019;-77
2022/04/30 12:11:00;;;;;;;8.25;4.35;;;16.00;98.20;;;;;;6248012;22;20023;-76
2022/04/30 12:13:32;;;;;;;7.90;4.13;;;16.70;98.00;;;;;;6223779;22;20047;-77
2022/04/30 12:16:07;;;;;;;10.00;4.35;;;17.20;96.80;;;;;;6275110;22;20066;-77
2022/04/30 12:24:45;;;;;;;10.03;3.90;;;18.10;94.30;;;;;;6226674;22;20028;-76
2022/04/30 12:27:23;;;;;;;8.27;4.32;;;17.70;93.20;;;;;;6226551;22;20260;-78
2022/04/30 12:30:00;;;;;;;10.50;4.28;;;17.30;93.10;;;;;;6248674;22;20347;-76
2022/04/30 12:32:26;;;;;;;8.77;3.90;;;16.90;93.70;;;;;;6247435;22;20339;-76
2022/04/30 12:35:02;;;;;;;7.88;4.03;;;16.70;94.40;;;;;;6248899;22;20047;-77
2022/04/30 12:37:33;;;;;;;13.05;4.78;;;16.50;94.20;;;;;;6247135;22;20081;-74
2022/04/30 12:40:03;;;;;;;7.82;3.53;;;16.50;94.90;;;;;;6246902;22;20507;-75
2022/04/30 12:42:30;;;;;;;9.30;3.42;;;16.40;95.00;;;;;;6244525;22;20019;-77
2022/04/30 12:45:00;;;;;;;10.80;4.13;;;16.50;95.30;;;;;;6248384;22;20027;-76
2022/04/30 12:47:28;;;;;;;10.45;5.32;;;16.70;94.80;;;;;;6274682;22;20032;-76
2022/04/30 12:50:04;;;;;;;6.55;3.40;;;16.90;94.50;;;;;;6222416;22;20023;-78
2022/04/30 12:52:36;;;;;;;5.47;3.75;;;17.30;94.00;;;;;;6247369;22;20039;-78
2022/04/30 12:55:03;;;;;;;6.90;3.80;;;18.20;94.20;;;;;;6247888;22;20024;-79
2022/04/30 12:57:30;;;;;;;7.75;3.70;;;18.10;92.70;;;;;;6247920;22;20042;-77
2022/04/30 12:59:56;;;;;;;7.53;3.08;;;18.40;92.40;;;;;;6248442;22;20046;-76
2022/04/30 13:02:25;;;;;;;6.85;3.53;;;19.20;91.70;;;;;;6273816;22;20428;-76
2022/04/30 13:04:52;;;;;;;8.77;4.28;;;19.30;90.40;;;;;;6252151;22;20467;-76
2022/04/30 13:07:18;;;;;;;10.65;3.83;;;19.60;88.10;;;;;;6236766;22;20058;-77
2022/04/30 13:15:39;;;;;;;6.63;3.03;;;20.70;78.00;;;;;;6180201;23;20029;-76
2022/04/30 13:18:09;;;;;;;6.35;3.33;;;21.20;74.80;;;;;;6155255;23;20430;-75
2022/04/30 13:20:46;;;;;;;8.00;3.30;;;22.00;70.20;;;;;;6155095;23;20465;-78
2022/04/30 13:23:15;;;;;;;7.45;2.92;;;22.60;65.40;;;;;;6132031;23;20040;-77
2022/04/30 13:25:42;;;;;;;7.80;3.10;;;23.30;61.50;;;;;;6180318;23;20029;-76
2022/04/30 13:28:10;;;;;;;5.50;3.08;;;23.90;56.20;;;;;;6180417;23;20021;-77
2022/04/30 13:30:36;;;;;;;6.78;2.85;;;24.60;54.80;;;;;;6154992;23;20040;-75
2022/04/30 13:33:05;;;;;;;6.95;2.58;;;25.20;52.40;;;;;;6179229;23;20021;-78
2022/04/30 13:35:31;;;;;;;6.07;2.83;;;25.50;50.20;;;;;;6155235;23;20080;-78
2022/04/30 13:37:57;;;;;;;7.47;2.88;;;25.50;48.40;;;;;;6180268;23;20103;-77
2022/04/30 13:40:25;;;;;;;6.80;2.70;;;25.70;46.50;;;;;;6130042;23;20052;-77
2022/04/30 13:43:02;;;;;;;5.88;2.60;;;26.00;45.60;;;;;;6130561;23;20465;-76
2022/04/30 13:45:32;;;;;;;5.70;2.60;;;26.50;44.60;;;;;;6156588;23;20021;-78
2022/04/30 13:48:00;;;;;;;6.43;2.63;;;26.50;43.70;;;;;;6180090;23;20025;-77
2022/04/30 13:50:33;;;;;;;4.70;2.38;;;26.90;42.90;;;;;;6154738;23;20132;-78
2022/04/30 13:53:00;;;;;;;5.60;2.47;;;27.10;42.00;;;;;;6236638;22;20026;-77
2022/04/30 13:55:26;;;;;;;5.72;2.05;;;27.30;41.50;;;;;;6274156;22;20028;-78
2022/04/30 13:57:57;;;;;;;5.72;2.28;;;27.50;41.00;;;;;;6246714;22;20099;-76